Aérodrome :
LOGIN :

S'inscrire | Disclaimer

   EN    FR    IT 

 










Légende :    VFR   VFR Marginal   IFR   IFR Intensif   IFR Très Intensif
Visi : 
Plafond : 
>= 8 km
>= 3000ft
5 à 8 km
1000 à 3000 ft
1500m à 5 km
500 à 1000 ft
800 à 1500m
200 à 500 ft
< 800m
< 200 ft
Symboles :   Orages  Brouillard  Fortes neiges  Fortes précipitations  Vent > 20 kt
SIGMETs :   Divers  Orages  Givrage  Turbulence  Onde Orograph.  Cendres Volcan.






- Altitude de l'aérodrome : 3 ft
- Code IATA : DHR


EHKD - Den Helder De Kooy

DERNIER METAR :
  • 270525Z AUTO 36006KT 300V050 9999 NCD 13/11 Q1035 BLU 34005KT CAVOK

METARs EXPIRÉS :
  • 270455Z AUTO 35006KT 290V040 9999 FEW015CB 13/10 Q1035 BLU 34005KT CAVOK
  • 270427Z AUTO 35004KT 310V030 9999 FEW390 12/10 Q1035 BLU 34005KT CAVOK
  • 270425Z AUTO 35004KT 310V030 9999 NCD 12/09 Q1034 BLU
  • 270355Z AUTO 35004KT 310V030 9999 NCD 11/09 Q1034 BLU
  • 270325Z AUTO 36004KT 330V030 9999 BKN380 11/09 Q1034 BLU
  • 270255Z AUTO 35004KT 320V030 9999 BKN230 BKN370 11/09 Q1034 BLU

TAF TAF EHKD
Valide du 27 à 05h jusqu'au 27 à 17h UTC


270422Z 2705/2717 36006KT 9999 SCT035
PROB30
TEMPO 2705/2709 2500 BR BKN003
BECMG 2710/2712 02010G20KT



MET'MAP, la Météo Aéronautique d'un coup d'oeil ! - Copyright ORBIFLY Décembre 2007 - Disclaimer

ORBIFLY MET'MAP TEAM :

Programmation & Développement : Alexandra Zaïnal
Sur une idée originale de : Baudouin d'Aumeries
Assistance à la programmation : Marc-Olivier Méhu
Soutien technique & logistique : Manuel Goepfert

Contact : metmap@orbifly.com




SOURCES & CREDITS :

   NOAA